Terminal Aerodrome Forecast
Issued by NWS

Home | Current Version | Previous Version | Text Only | Print | Product List | Glossary On
Versions: 1 2 3 4 5 6 7 8 9 10 11 12 13 14 15 16 17
000
FTUS45 KABQ 261700
TAFTCC
TAF
KTCC 261734Z 2618/2718 07010KT 2SM -SN OVC012
      TEMPO 2618/2620 1/2SM SN OVC008
     FM262000 07007KT P6SM VCSH SCT015 BKN030
      TEMPO 2620/2622 2SM -SN BR OVC012
     FM270200 VRB05KT P6SM SCT035
     FM270900 VRB03KT 3/4SM BR BKN008
     FM271600 VRB05KT P6SM SKC=

USA.gov is the U.S. government's official web portal to all federal, state and local government web resources and services.